Pierceton, IN (46562)

8:26 AM EST on February 08, 2016 (GMT -0500)
Barbee Kuhn Point | | Change Station
CLOSE
Current Station
Personal Weather Station
Location: Pierceton, IN
Elevation: 853 ft
Nearby Weather Stations

Elev 853 ft 41.28 °N, 85.70 °W | Updated 24 seconds ago

Partly Cloudy
Partly Cloudy
30.1 °F
Feels Like 30 °F
N
0.0
Wind Variable Wind from West
Gusts 0.0 mph

Today
High -- | Low -- °F
--% Chance of Precip.
Yesterday
High -- | Low -- °F
Precip. -- in
Pressure 29.64 in
Visibility 10.0 miles
Clouds Scattered Clouds 3900 ft
Scattered Clouds 8000 ft
Mostly Cloudy 11000 ft
Windchill 30 °F
Dew Point 28 °F
Humidity 90%
Rainfall 0.00 in
Snow Depth Not available.
7:46 AM 6:07 PM
Waning Crescent, 0% visible
METAR KASW 081315Z AUTO 00000KT 10SM SCT039 SCT080 BKN110 M02/M02 A2964 RMK AO2
Pressure 29.64 in
Visibility 10.0 miles
Clouds Scattered Clouds 3900 ft
Scattered Clouds 8000 ft
Mostly Cloudy 11000 ft
Windchill 30 °F
Dew Point 28 °F
Humidity 90%
Rainfall 0.00 in
Snow Depth Not available.
7:46 AM 6:07 PM
Waning Crescent, 0% visible
METAR KASW 081315Z AUTO 00000KT 10SM SCT039 SCT080 BKN110 M02/M02 A2964 RMK AO2

10-Day Weather Forecast

Almanac

Astronomy

Feb. 08, 2016 Rise Set
Actual Time
Civil Twilight
Nautical Twilight
Astronomical Twilight
Moon
Length of Visible Light
Length of Day
Tomorrow will be .
, % of the Moon is Illuminated

Today's Extremes

State Highs State Lows

Community

WunderPhotos

Upload Photos

1,891,434 photos uploaded!

WunderBlog® & News

Nearby

Air Quality

  Air Quality AQ Index Pollutant
Not available.

Snow Depth

Station Depth Elevation

Earthquake Activity

City Distance Mag. Time & Date
Minimum magnitude displayed is 2.5.

Coastal Water Temperatures

Place Temperature

Stations

Nearby Weather Stations

Station Location Temp. Windchill Dew Point Humidity Wind Precip. Elev Updated Type
                   

Watches & Warnings

There are currently no watches in effect.